Time;durP1;ratioP1;P1;durP2;ratioP2;P2;SDS_P1;SDS_P2;PMS_P1;PMS_P2;Temp;Humidity;BMP_temperature;BMP_pressure;BME280_temperature;BME280_humidity;BME280_pressure;Samples;Min_cycle;Max_cycle;Signal;HPM_P1;HPM_P2
2022/06/05 00:00:04;;;;;;;29.90;13.43;;;;;;;;;;5014296;28;20041;-71
2022/06/05 00:02:33;;;;;;;28.03;12.80;;;;;;;;;;5013936;28;20026;-71
2022/06/05 00:05:02;;;;;;;26.93;13.80;;;;;;;;;;5031029;28;20040;-71
2022/06/05 00:07:34;;;;;;;27.87;14.60;;;;;;;;;;5031638;28;20473;-71
2022/06/05 00:10:07;;;;;;;29.10;13.80;;;;;;;;;;5013829;28;20042;-71
2022/06/05 00:12:51;;;;;;;23.47;13.33;;;;;;;;;;5014605;28;20025;-71
2022/06/05 00:15:17;;;;;;;29.07;13.70;;;;;;;;;;5024204;28;20466;-71
2022/06/05 00:17:42;;;;;;;26.23;13.27;;;;;;;;;;5033333;28;20051;-71
2022/06/05 00:20:08;;;;;;;29.73;13.73;;;;;;;;;;5033302;28;20029;-71
2022/06/05 00:22:34;;;;;;;28.80;14.70;;;;;;;;;;5031321;28;20061;-71
2022/06/05 00:24:59;;;;;;;29.70;14.87;;;;;;;;;;5025525;28;20080;-71
2022/06/05 00:27:28;;;;;;;25.77;14.40;;;;;;;;;;5033144;28;20025;-71
2022/06/05 00:30:03;;;;;;;28.30;15.33;;;;;;;;;;5032785;28;20040;-71
2022/06/05 00:32:47;;;;;;;29.40;14.87;;;;;;;;;;5031994;28;20021;-71
2022/06/05 00:35:15;;;;;;;29.70;14.50;;;;;;;;;;5033282;28;20039;-71
2022/06/05 00:37:44;;;;;;;23.33;13.47;;;;;;;;;;5028343;28;20465;-71
2022/06/05 00:40:18;;;;;;;28.50;14.20;;;;;;;;;;5018875;28;20026;-71
2022/06/05 00:42:44;;;;;;;33.40;15.67;;;;;;;;;;5032256;28;20421;-71
2022/06/05 00:45:11;;;;;;;30.63;15.03;;;;;;;;;;5024667;28;20037;-71
2022/06/05 00:47:38;;;;;;;33.30;14.50;;;;;;;;;;5026758;28;20060;-71
2022/06/05 00:50:09;;;;;;;34.07;15.40;;;;;;;;;;5031748;28;20052;-71
2022/06/05 00:52:36;;;;;;;25.02;14.63;;;;;;;;;;5031386;28;20029;-71
2022/06/05 00:55:02;;;;;;;25.53;13.93;;;;;;;;;;5030764;28;20056;-71
2022/06/05 00:57:28;;;;;;;26.90;14.63;;;;;;;;;;5030574;28;20441;-71
2022/06/05 00:59:54;;;;;;;28.37;14.67;;;;;;;;;;5031568;28;20028;-71
2022/06/05 01:02:19;;;;;;;32.33;15.20;;;;;;;;;;5031761;28;20478;-69
2022/06/05 01:04:47;;;;;;;29.77;14.57;;;;;;;;;;5027319;28;20061;-68
2022/06/05 01:07:13;;;;;;;25.50;14.27;;;;;;;;;;5026946;28;20034;-68
2022/06/05 01:09:39;;;;;;;30.87;15.20;;;;;;;;;;5027883;28;20456;-68
2022/06/05 01:12:14;;;;;;;30.03;15.07;;;;;;;;;;5023142;28;20071;-68
2022/06/05 01:14:51;;;;;;;27.13;15.10;;;;;;;;;;5029287;28;20041;-68
2022/06/05 01:17:16;;;;;;;27.70;14.87;;;;;;;;;;5020266;28;20056;-69
2022/06/05 01:19:46;;;;;;;25.13;14.47;;;;;;;;;;5031710;28;20052;-68
2022/06/05 01:22:14;;;;;;;32.63;14.90;;;;;;;;;;5029970;28;20018;-68
2022/06/05 01:24:59;;;;;;;29.80;14.83;;;;;;;;;;5020274;28;20040;-68
2022/06/05 01:27:27;;;;;;;32.03;15.90;;;;;;;;;;5029414;28;20040;-69
2022/06/05 01:30:31;;;;;;;27.00;15.10;;;;;;;;;;5031313;28;20081;-68
2022/06/05 01:33:02;;;;;;;28.60;15.07;;;;;;;;;;5008999;28;20070;-68
2022/06/05 01:35:32;;;;;;;30.88;15.15;;;;;;;;;;5019695;28;20026;-68
2022/06/05 01:38:05;;;;;;;29.23;15.30;;;;;;;;;;5010773;28;20038;-68
2022/06/05 01:40:51;;;;;;;24.20;14.27;;;;;;;;;;5010658;28;20021;-68
2022/06/05 01:43:19;;;;;;;26.47;14.97;;;;;;;;;;5009576;28;20026;-68
2022/06/05 01:45:47;;;;;;;28.90;14.93;;;;;;;;;;5017905;28;20029;-68
2022/06/05 01:48:17;;;;;;;24.77;14.13;;;;;;;;;;5015044;28;20021;-68
2022/06/05 01:50:46;;;;;;;29.67;15.40;;;;;;;;;;5023148;28;20045;-68
2022/06/05 01:53:33;;;;;;;26.20;14.80;;;;;;;;;;5016015;28;20032;-68
2022/06/05 01:56:04;;;;;;;29.37;14.50;;;;;;;;;;5023268;28;20128;-68
2022/06/05 01:58:34;;;;;;;29.45;15.05;;;;;;;;;;5010881;28;20065;-68
2022/06/05 02:01:02;;;;;;;30.93;14.73;;;;;;;;;;5021770;28;20445;-68
2022/06/05 02:03:34;;;;;;;27.30;14.40;;;;;;;;;;5027748;28;20026;-68
2022/06/05 02:06:11;;;;;;;24.87;14.63;;;;;;;;;;5017114;28;20030;-68
2022/06/05 02:08:46;;;;;;;30.13;14.50;;;;;;;;;;5029054;28;20547;-68
2022/06/05 02:11:17;;;;;;;26.67;14.30;;;;;;;;;;5021927;28;20033;-68
2022/06/05 02:13:43;;;;;;;28.63;14.30;;;;;;;;;;5021091;28;20068;-68
2022/06/05 02:16:08;;;;;;;32.20;14.40;;;;;;;;;;5025093;28;20554;-71
2022/06/05 02:18:33;;;;;;;27.93;14.47;;;;;;;;;;5030868;28;20221;-71
2022/06/05 02:21:00;;;;;;;25.37;14.27;;;;;;;;;;5029556;28;20059;-71
2022/06/05 02:23:28;;;;;;;30.60;15.57;;;;;;;;;;5018561;28;20501;-71
2022/06/05 02:25:54;;;;;;;31.43;15.40;;;;;;;;;;5029560;28;20048;-71
2022/06/05 02:28:21;;;;;;;25.63;13.37;;;;;;;;;;5028924;28;20021;-71
2022/06/05 02:30:46;;;;;;;23.23;14.00;;;;;;;;;;5028906;28;20381;-71
2022/06/05 02:33:30;;;;;;;23.70;13.40;;;;;;;;;;5031064;28;20030;-69
2022/06/05 02:36:04;;;;;;;30.87;14.00;;;;;;;;;;5027129;28;20113;-69
2022/06/05 02:38:30;;;;;;;26.57;14.23;;;;;;;;;;5029027;28;20386;-69
2022/06/05 02:41:12;;;;;;;26.83;14.40;;;;;;;;;;5024136;28;20021;-69
2022/06/05 02:43:37;;;;;;;24.87;14.17;;;;;;;;;;5019784;28;20071;-69
2022/06/05 02:46:08;;;;;;;23.47;13.50;;;;;;;;;;5017528;28;20017;-69
2022/06/05 02:48:36;;;;;;;28.23;14.10;;;;;;;;;;5011287;28;20536;-69
2022/06/05 02:51:10;;;;;;;24.17;13.77;;;;;;;;;;5017707;28;20037;-69
2022/06/05 02:53:45;;;;;;;23.20;13.57;;;;;;;;;;5030476;28;20432;-69
2022/06/05 02:56:10;;;;;;;22.57;13.73;;;;;;;;;;5020105;28;20049;-69
2022/06/05 02:58:36;;;;;;;20.93;13.23;;;;;;;;;;5018844;28;20025;-69
2022/06/05 03:03:44;;;;;;;23.57;12.30;;;;;;;;;;5025946;28;20059;-69
2022/06/05 03:06:10;;;;;;;19.07;11.63;;;;;;;;;;5018413;28;20104;-69
2022/06/05 03:08:35;;;;;;;20.83;11.83;;;;;;;;;;5030744;28;20017;-69
2022/06/05 03:11:01;;;;;;;22.50;11.97;;;;;;;;;;5026449;28;20033;-68
2022/06/05 03:13:26;;;;;;;19.53;12.40;;;;;;;;;;5027477;28;20435;-68
2022/06/05 03:15:51;;;;;;;19.73;12.13;;;;;;;;;;5025668;28;20192;-68
2022/06/05 03:18:16;;;;;;;19.10;12.00;;;;;;;;;;5016087;28;20112;-68
2022/06/05 03:20:42;;;;;;;19.33;11.17;;;;;;;;;;5031062;28;20488;-68
2022/06/05 03:23:09;;;;;;;19.37;11.77;;;;;;;;;;5023110;28;20029;-68
2022/06/05 03:25:36;;;;;;;21.40;11.83;;;;;;;;;;5019521;28;20091;-68
2022/06/05 03:28:01;;;;;;;19.53;11.80;;;;;;;;;;5021655;28;20027;-68
2022/06/05 03:30:27;;;;;;;20.83;11.47;;;;;;;;;;5032989;28;20100;-69
2022/06/05 03:32:52;;;;;;;20.50;11.17;;;;;;;;;;5033181;28;20018;-69
2022/06/05 03:35:18;;;;;;;18.43;10.77;;;;;;;;;;5030777;28;20087;-69
2022/06/05 03:37:43;;;;;;;18.10;11.53;;;;;;;;;;5032919;28;20032;-69
2022/06/05 03:40:11;;;;;;;17.97;10.73;;;;;;;;;;5032084;28;20504;-68
2022/06/05 03:42:37;;;;;;;23.70;10.70;;;;;;;;;;5032254;28;20025;-68
2022/06/05 03:45:02;;;;;;;17.50;10.53;;;;;;;;;;5033524;28;20013;-68
2022/06/05 03:47:27;;;;;;;19.00;11.10;;;;;;;;;;5023481;28;20022;-68
2022/06/05 03:49:53;;;;;;;16.87;10.00;;;;;;;;;;5033045;28;20032;-68
2022/06/05 03:52:18;;;;;;;19.30;10.77;;;;;;;;;;5031206;28;20021;-68
2022/06/05 03:54:43;;;;;;;16.80;10.00;;;;;;;;;;5029837;28;20481;-68
2022/06/05 03:57:08;;;;;;;14.67;9.53;;;;;;;;;;5027220;28;20091;-68
2022/06/05 03:59:35;;;;;;;18.80;10.83;;;;;;;;;;5031585;28;20025;-69
2022/06/05 04:02:00;;;;;;;15.57;10.73;;;;;;;;;;5033934;28;20477;-69
2022/06/05 04:04:26;;;;;;;16.73;9.87;;;;;;;;;;5029107;28;20117;-69
2022/06/05 04:06:51;;;;;;;14.70;9.83;;;;;;;;;;5022521;28;20341;-69
2022/06/05 04:09:16;;;;;;;13.57;9.20;;;;;;;;;;5031760;28;20037;-68
2022/06/05 04:11:41;;;;;;;14.87;9.47;;;;;;;;;;5029329;28;20065;-68
2022/06/05 04:14:10;;;;;;;15.17;9.27;;;;;;;;;;5032450;28;20026;-68
2022/06/05 04:16:36;;;;;;;13.50;9.00;;;;;;;;;;5031336;28;20083;-68
2022/06/05 04:19:03;;;;;;;14.13;8.13;;;;;;;;;;5016977;28;20017;-68
2022/06/05 04:21:30;;;;;;;13.13;8.37;;;;;;;;;;5021465;28;20116;-68
2022/06/05 04:23:56;;;;;;;13.50;8.67;;;;;;;;;;5015151;28;20076;-68
2022/06/05 04:26:22;;;;;;;16.33;8.13;;;;;;;;;;5026490;28;20413;-68
2022/06/05 04:28:48;;;;;;;15.10;8.03;;;;;;;;;;5017400;28;20032;-68
2022/06/05 04:31:21;;;;;;;13.50;8.47;;;;;;;;;;5029837;28;20029;-69
2022/06/05 04:33:47;;;;;;;13.90;7.53;;;;;;;;;;5031666;28;20101;-69
2022/06/05 04:36:12;;;;;;;13.17;7.90;;;;;;;;;;5020444;28;20056;-69
2022/06/05 04:38:38;;;;;;;12.53;7.60;;;;;;;;;;5025940;28;20061;-69
2022/06/05 04:41:03;;;;;;;11.53;7.83;;;;;;;;;;5027771;28;20028;-69
2022/06/05 04:43:28;;;;;;;13.03;7.67;;;;;;;;;;5025529;28;20033;-68
2022/06/05 04:45:53;;;;;;;11.80;7.90;;;;;;;;;;5030911;28;20013;-68
2022/06/05 04:48:19;;;;;;;12.55;7.20;;;;;;;;;;5032082;28;20048;-68
2022/06/05 04:50:44;;;;;;;11.95;7.20;;;;;;;;;;5024430;28;20462;-68
2022/06/05 04:53:09;;;;;;;10.55;7.45;;;;;;;;;;5026894;28;20033;-68
2022/06/05 04:55:38;;;;;;;11.07;7.13;;;;;;;;;;5024634;28;20038;-68
2022/06/05 04:58:04;;;;;;;10.85;7.15;;;;;;;;;;5021689;28;20017;-68
2022/06/05 05:00:29;;;;;;;10.10;6.97;;;;;;;;;;5029204;28;20037;-68
2022/06/05 05:02:54;;;;;;;10.68;7.28;;;;;;;;;;5029378;28;20398;-69
2022/06/05 05:05:19;;;;;;;13.45;6.90;;;;;;;;;;5031365;28;20036;-68
2022/06/05 05:07:45;;;;;;;10.15;7.22;;;;;;;;;;5031726;28;20500;-68
2022/06/05 05:10:10;;;;;;;11.63;7.18;;;;;;;;;;5030050;28;20036;-68
2022/06/05 05:12:36;;;;;;;11.55;7.50;;;;;;;;;;5020375;28;20014;-68
2022/06/05 05:15:02;;;;;;;10.70;7.53;;;;;;;;;;5031292;28;20013;-68
2022/06/05 05:17:27;;;;;;;13.18;7.50;;;;;;;;;;5030108;28;20022;-68
2022/06/05 05:19:52;;;;;;;14.88;7.30;;;;;;;;;;5030371;28;20052;-68
2022/06/05 05:22:18;;;;;;;14.10;7.40;;;;;;;;;;5030199;28;20363;-69
2022/06/05 05:24:43;;;;;;;11.38;6.95;;;;;;;;;;5029563;28;20013;-68
2022/06/05 05:27:09;;;;;;;9.88;6.97;;;;;;;;;;5028561;28;20033;-68
2022/06/05 05:29:34;;;;;;;9.88;6.93;;;;;;;;;;5031264;28;20442;-68
2022/06/05 05:32:00;;;;;;;11.20;6.95;;;;;;;;;;5031257;28;20036;-68
2022/06/05 05:34:25;;;;;;;12.13;7.18;;;;;;;;;;5018650;28;20034;-68
2022/06/05 05:36:50;;;;;;;11.15;6.88;;;;;;;;;;5025939;28;20409;-68
2022/06/05 05:42:05;;;;;;;10.45;6.22;;;;;;;;;;5029369;28;20028;-68
2022/06/05 05:44:40;;;;;;;9.00;5.88;;;;;;;;;;5020811;28;20032;-69
2022/06/05 05:47:06;;;;;;;12.20;6.00;;;;;;;;;;5027946;28;20124;-68
2022/06/05 05:49:32;;;;;;;9.73;6.00;;;;;;;;;;5025066;28;20033;-69
2022/06/05 05:51:57;;;;;;;10.80;5.88;;;;;;;;;;5022657;28;20013;-69
2022/06/05 05:54:23;;;;;;;8.57;5.70;;;;;;;;;;5028461;28;20037;-68
2022/06/05 05:56:48;;;;;;;7.63;5.60;;;;;;;;;;5027609;28;20025;-68
2022/06/05 05:59:13;;;;;;;9.70;5.82;;;;;;;;;;5012343;28;20105;-68
2022/06/05 06:01:39;;;;;;;9.88;5.80;;;;;;;;;;5016858;28;20025;-68
2022/06/05 06:04:04;;;;;;;9.57;5.78;;;;;;;;;;5030058;28;20431;-68
2022/06/05 06:06:31;;;;;;;14.85;6.03;;;;;;;;;;5026527;28;20042;-68
2022/06/05 06:08:57;;;;;;;8.90;5.65;;;;;;;;;;5027576;28;20375;-69
2022/06/05 06:11:23;;;;;;;7.60;5.20;;;;;;;;;;5011643;28;20041;-69
2022/06/05 06:13:48;;;;;;;7.90;5.53;;;;;;;;;;5013479;28;20470;-69
2022/06/05 06:16:13;;;;;;;8.68;5.97;;;;;;;;;;5011811;28;20101;-69
2022/06/05 06:18:39;;;;;;;9.00;5.50;;;;;;;;;;5011730;28;20044;-69
2022/06/05 06:21:04;;;;;;;9.43;5.47;;;;;;;;;;5011472;28;20038;-69
2022/06/05 06:23:29;;;;;;;9.77;5.68;;;;;;;;;;5011196;28;20112;-69
2022/06/05 06:25:54;;;;;;;9.52;5.82;;;;;;;;;;5014281;28;20029;-68
2022/06/05 06:28:21;;;;;;;9.35;5.70;;;;;;;;;;5018369;28;20113;-69
2022/06/05 06:30:47;;;;;;;9.60;5.38;;;;;;;;;;5011971;28;20053;-68
2022/06/05 06:33:13;;;;;;;8.70;5.45;;;;;;;;;;5011260;28;20026;-69
2022/06/05 06:35:38;;;;;;;9.25;5.53;;;;;;;;;;5026313;28;20478;-69
2022/06/05 06:38:04;;;;;;;8.65;5.80;;;;;;;;;;5031054;28;20033;-69
2022/06/05 06:40:29;;;;;;;9.70;5.85;;;;;;;;;;5031396;28;20055;-69
2022/06/05 06:42:55;;;;;;;8.38;5.45;;;;;;;;;;5028253;28;20025;-69
2022/06/05 06:45:20;;;;;;;7.13;5.47;;;;;;;;;;5022670;28;20021;-69
2022/06/05 06:47:46;;;;;;;7.45;5.40;;;;;;;;;;5023644;28;20030;-68
2022/06/05 06:50:11;;;;;;;8.52;5.40;;;;;;;;;;5018753;28;20469;-68
2022/06/05 06:52:37;;;;;;;8.60;5.50;;;;;;;;;;5025299;28;20026;-69
2022/06/05 06:55:02;;;;;;;6.78;4.90;;;;;;;;;;5026110;28;20390;-69
2022/06/05 06:57:28;;;;;;;11.57;5.53;;;;;;;;;;5032339;28;20029;-69
2022/06/05 06:59:53;;;;;;;7.15;5.10;;;;;;;;;;5023974;28;20021;-69
2022/06/05 07:02:18;;;;;;;7.40;5.00;;;;;;;;;;5022193;28;20359;-69
2022/06/05 07:04:43;;;;;;;9.27;5.03;;;;;;;;;;5015546;28;20026;-69
2022/06/05 07:07:09;;;;;;;10.48;4.72;;;;;;;;;;5015040;28;20041;-69
2022/06/05 07:09:34;;;;;;;7.35;4.65;;;;;;;;;;5014828;28;20034;-69
2022/06/05 07:11:59;;;;;;;6.95;4.70;;;;;;;;;;5020375;28;20026;-69
2022/06/05 07:14:26;;;;;;;10.90;5.20;;;;;;;;;;5015253;28;20485;-69
2022/06/05 07:16:51;;;;;;;7.30;4.93;;;;;;;;;;5015529;28;20033;-69
2022/06/05 07:19:17;;;;;;;7.55;4.65;;;;;;;;;;5020633;28;20085;-69
2022/06/05 07:21:42;;;;;;;6.38;4.30;;;;;;;;;;5033249;28;20033;-69
2022/06/05 07:24:07;;;;;;;6.95;4.32;;;;;;;;;;5033323;28;20013;-69
2022/06/05 07:26:33;;;;;;;6.13;4.18;;;;;;;;;;5033754;28;20053;-69
2022/06/05 07:28:58;;;;;;;7.40;4.68;;;;;;;;;;5014984;28;20022;-69
2022/06/05 07:31:26;;;;;;;8.63;5.22;;;;;;;;;;5014803;28;20022;-69
2022/06/05 07:33:51;;;;;;;8.25;4.60;;;;;;;;;;5014548;28;20022;-69
2022/06/05 07:36:17;;;;;;;6.63;4.20;;;;;;;;;;5024455;28;20025;-69
2022/06/05 07:38:43;;;;;;;9.07;4.50;;;;;;;;;;5034499;28;20105;-69
2022/06/05 07:41:36;;;;;;;6.65;4.32;;;;;;;;;;5034300;28;20075;-69
2022/06/05 07:44:02;;;;;;;8.27;4.43;;;;;;;;;;5033498;28;20061;-69
2022/06/05 07:46:27;;;;;;;10.43;4.25;;;;;;;;;;5018393;28;20470;-69
2022/06/05 07:48:52;;;;;;;5.85;4.43;;;;;;;;;;5013942;28;20033;-69
2022/06/05 07:54:27;;;;;;;6.35;3.80;;;;;;;;;;5031297;28;20025;-69
2022/06/05 07:56:56;;;;;;;8.48;4.10;;;;;;;;;;5032737;28;20470;-69
2022/06/05 07:59:22;;;;;;;6.57;4.13;;;;;;;;;;5014732;28;20022;-69
2022/06/05 08:01:47;;;;;;;5.85;4.18;;;;;;;;;;5028275;28;20140;-69
2022/06/05 08:04:12;;;;;;;5.68;3.92;;;;;;;;;;5028436;28;20022;-69
2022/06/05 08:06:37;;;;;;;7.45;4.05;;;;;;;;;;5033195;28;20054;-69
2022/06/05 08:09:04;;;;;;;9.32;4.85;;;;;;;;;;5017841;28;20374;-69
2022/06/05 08:11:29;;;;;;;6.65;4.18;;;;;;;;;;5029636;28;20029;-69
2022/06/05 08:13:54;;;;;;;6.40;4.05;;;;;;;;;;5019056;28;20623;-69
2022/06/05 08:16:20;;;;;;;5.88;4.13;;;;;;;;;;5014424;28;20042;-69
2022/06/05 08:18:45;;;;;;;7.70;4.35;;;;;;;;;;5024954;28;20021;-69
2022/06/05 08:21:11;;;;;;;5.97;4.15;;;;;;;;;;5033467;28;20021;-69
2022/06/05 08:23:37;;;;;;;8.70;4.70;;;;;;;;;;5024144;28;20560;-69
2022/06/05 08:26:02;;;;;;;9.85;4.50;;;;;;;;;;5025144;28;20018;-69
2022/06/05 08:28:28;;;;;;;9.98;4.70;;;;;;;;;;5017175;28;20026;-69
2022/06/05 08:30:53;;;;;;;6.65;4.70;;;;;;;;;;5016496;28;20013;-69
2022/06/05 08:33:18;;;;;;;7.03;4.60;;;;;;;;;;5026037;28;20044;-69
2022/06/05 08:35:44;;;;;;;6.28;4.40;;;;;;;;;;5026424;28;20029;-69
2022/06/05 08:44:09;;;;;;;7.78;5.32;;;;;;;;;;5014338;28;20056;-70
2022/06/05 08:46:38;;;;;;;9.27;4.85;;;;;;;;;;5032102;28;20029;-69
2022/06/05 08:49:06;;;;;;;6.82;4.65;;;;;;;;;;5032869;28;20108;-69
2022/06/05 08:51:32;;;;;;;8.07;4.88;;;;;;;;;;5032627;28;20551;-69
2022/06/05 08:54:01;;;;;;;9.23;5.00;;;;;;;;;;5028430;28;20025;-69
2022/06/05 08:56:36;;;;;;;8.48;5.25;;;;;;;;;;5031859;28;20034;-69
2022/06/05 08:59:05;;;;;;;9.00;5.38;;;;;;;;;;5028845;28;20017;-69
2022/06/05 09:01:30;;;;;;;6.68;4.50;;;;;;;;;;5031683;28;20442;-69
2022/06/05 09:03:59;;;;;;;8.32;4.63;;;;;;;;;;5025569;28;20071;-69
2022/06/05 09:06:53;;;;;;;7.53;4.60;;;;;;;;;;5025923;28;20477;-69
2022/06/05 09:09:21;;;;;;;6.32;4.70;;;;;;;;;;5031361;28;20034;-69
2022/06/05 09:11:49;;;;;;;6.90;4.68;;;;;;;;;;5032482;28;20393;-69
2022/06/05 09:14:22;;;;;;;6.65;4.70;;;;;;;;;;5024859;28;20536;-69
2022/06/05 09:16:50;;;;;;;6.85;4.20;;;;;;;;;;5026563;28;20390;-69
2022/06/05 09:19:25;;;;;;;5.65;3.92;;;;;;;;;;5024560;28;20557;-69
2022/06/05 09:21:58;;;;;;;8.75;4.82;;;;;;;;;;5031873;28;20022;-69
2022/06/05 09:24:42;;;;;;;7.78;4.60;;;;;;;;;;5025648;28;20025;-69
2022/06/05 09:27:19;;;;;;;10.73;4.50;;;;;;;;;;5027320;28;20025;-69
2022/06/05 09:29:44;;;;;;;6.72;3.90;;;;;;;;;;5020143;28;20083;-69
2022/06/05 09:32:28;;;;;;;11.02;4.00;;;;;;;;;;5015164;28;20388;-69
2022/06/05 09:34:55;;;;;;;6.20;3.58;;;;;;;;;;5029462;28;20033;-69
2022/06/05 09:37:34;;;;;;;8.02;3.83;;;;;;;;;;5032433;28;20520;-69
2022/06/05 09:40:02;;;;;;;6.00;3.58;;;;;;;;;;5028897;28;20462;-69
2022/06/05 09:42:36;;;;;;;6.25;3.80;;;;;;;;;;5022807;28;20047;-69
2022/06/05 09:45:18;;;;;;;6.40;3.90;;;;;;;;;;5017656;28;20103;-69
2022/06/05 09:47:44;;;;;;;6.00;3.90;;;;;;;;;;5019263;28;20155;-69
2022/06/05 09:50:21;;;;;;;6.80;3.80;;;;;;;;;;5026866;28;20037;-69
2022/06/05 09:52:48;;;;;;;5.85;3.85;;;;;;;;;;5021269;28;20018;-69
2022/06/05 09:55:39;;;;;;;6.78;3.78;;;;;;;;;;5013370;28;20049;-69
2022/06/05 09:58:27;;;;;;;5.47;3.55;;;;;;;;;;5027850;28;20021;-69
2022/06/05 10:00:56;;;;;;;4.90;3.50;;;;;;;;;;5020775;28;20048;-69
2022/06/05 10:03:24;;;;;;;6.75;3.58;;;;;;;;;;5023534;28;20373;-69
2022/06/05 10:06:11;;;;;;;4.95;3.50;;;;;;;;;;5026663;28;20029;-69
2022/06/05 10:08:42;;;;;;;6.20;3.40;;;;;;;;;;5016109;28;20030;-69
2022/06/05 10:11:19;;;;;;;6.25;3.55;;;;;;;;;;5016959;28;20117;-70
2022/06/05 10:13:56;;;;;;;5.70;3.50;;;;;;;;;;5030272;28;20061;-69
2022/06/05 10:16:34;;;;;;;6.32;3.80;;;;;;;;;;5012754;28;20036;-69
2022/06/05 10:19:13;;;;;;;8.27;3.40;;;;;;;;;;5025340;28;20022;-69
2022/06/05 10:21:43;;;;;;;9.23;3.60;;;;;;;;;;5025815;28;20022;-69
2022/06/05 10:24:26;;;;;;;7.07;3.45;;;;;;;;;;5017226;28;20493;-69
2022/06/05 10:26:53;;;;;;;5.45;3.40;;;;;;;;;;5028801;28;20377;-69
2022/06/05 10:29:24;;;;;;;5.88;3.20;;;;;;;;;;5027122;28;20091;-69
2022/06/05 10:31:56;;;;;;;4.85;3.15;;;;;;;;;;5017738;28;20466;-69
2022/06/05 10:34:30;;;;;;;7.88;3.42;;;;;;;;;;5024774;28;20497;-70
2022/06/05 10:37:04;;;;;;;7.25;3.10;;;;;;;;;;5022713;28;20014;-70
2022/06/05 10:39:40;;;;;;;7.78;3.25;;;;;;;;;;5028900;28;20060;-70
2022/06/05 10:42:19;;;;;;;5.32;3.13;;;;;;;;;;5025827;28;20021;-69
2022/06/05 10:44:58;;;;;;;4.82;3.05;;;;;;;;;;5022697;28;20024;-69
2022/06/05 10:47:31;;;;;;;8.85;3.05;;;;;;;;;;5026434;28;20033;-69
2022/06/05 10:50:07;;;;;;;6.35;3.60;;;;;;;;;;5017312;28;20032;-69
2022/06/05 10:52:36;;;;;;;7.03;3.42;;;;;;;;;;5028581;28;20037;-69
2022/06/05 10:55:22;;;;;;;5.43;2.80;;;;;;;;;;5030610;28;20028;-70
2022/06/05 10:57:53;;;;;;;5.10;3.00;;;;;;;;;;5023710;28;20064;-69
2022/06/05 11:00:18;;;;;;;;;;;;;;;;;;5015449;28;20173;-70
2022/06/05 11:02:43;;;;;;;4.90;3.10;;;;;;;;;;5022285;28;20007;-70
2022/06/05 11:05:21;;;;;;;6.43;3.10;;;;;;;;;;5030847;28;20025;-70
2022/06/05 11:08:04;;;;;;;6.00;3.17;;;;;;;;;;5026254;28;20064;-69
2022/06/05 11:13:42;;;;;;;5.22;3.17;;;;;;;;;;5017269;28;20112;-69
2022/06/05 11:16:26;;;;;;;6.35;3.20;;;;;;;;;;5018491;28;20030;-70
2022/06/05 11:19:03;;;;;;;6.68;3.30;;;;;;;;;;5025383;28;20025;-69
2022/06/05 11:21:29;;;;;;;6.00;3.20;;;;;;;;;;5022013;28;20025;-70
2022/06/05 11:23:57;;;;;;;7.78;3.17;;;;;;;;;;5028892;28;20013;-71
2022/06/05 11:26:41;;;;;;;6.53;2.95;;;;;;;;;;5030306;28;20029;-70
2022/06/05 11:29:12;;;;;;;4.63;3.10;;;;;;;;;;5019383;28;20022;-70
2022/06/05 11:31:37;;;;;;;;;;;;;;;;;;5029846;28;20059;-70
2022/06/05 11:34:11;;;;;;;6.25;3.00;;;;;;;;;;5018874;28;19996;-70
2022/06/05 11:36:42;;;;;;;5.63;2.72;;;;;;;;;;5010739;28;20021;-70
2022/06/05 11:39:07;;;;;;;7.10;2.70;;;;;;;;;;5014437;28;20025;-70
2022/06/05 11:41:45;;;;;;;5.43;3.00;;;;;;;;;;5014299;28;20113;-70
2022/06/05 11:44:34;;;;;;;5.57;3.22;;;;;;;;;;5015569;28;20429;-70
2022/06/05 11:47:02;;;;;;;5.38;3.00;;;;;;;;;;5029180;28;20383;-70
2022/06/05 11:49:36;;;;;;;5.35;2.80;;;;;;;;;;5016027;28;20378;-70
2022/06/05 11:52:08;;;;;;;4.60;2.85;;;;;;;;;;5033874;28;20022;-70
2022/06/05 11:54:45;;;;;;;5.85;3.00;;;;;;;;;;5019707;28;20382;-69
2022/06/05 11:57:16;;;;;;;5.25;2.90;;;;;;;;;;5027397;28;20069;-69
2022/06/05 11:59:46;;;;;;;6.28;2.83;;;;;;;;;;5015974;28;20105;-69
2022/06/05 12:02:11;;;;;;;4.30;2.85;;;;;;;;;;5016435;28;20470;-69
2022/06/05 12:04:50;;;;;;;7.53;3.05;;;;;;;;;;5013629;28;20028;-70
2022/06/05 12:07:16;;;;;;;7.82;2.78;;;;;;;;;;5013058;28;20054;-70
2022/06/05 12:09:56;;;;;;;5.90;2.90;;;;;;;;;;5013171;28;20386;-70
2022/06/05 12:12:25;;;;;;;4.13;2.58;;;;;;;;;;5028642;28;20033;-70
2022/06/05 12:14:53;;;;;;;5.88;2.55;;;;;;;;;;5019396;28;20072;-70
2022/06/05 12:17:30;;;;;;;5.57;3.00;;;;;;;;;;5013458;28;20310;-70
2022/06/05 12:19:59;;;;;;;6.90;2.70;;;;;;;;;;5014714;28;20041;-70
2022/06/05 12:22:28;;;;;;;4.63;2.90;;;;;;;;;;5015077;28;20057;-70
2022/06/05 12:25:13;;;;;;;5.72;2.83;;;;;;;;;;5031392;28;20014;-69
2022/06/05 12:27:41;;;;;;;5.22;3.03;;;;;;;;;;5018514;28;20128;-70
2022/06/05 12:30:20;;;;;;;5.90;2.92;;;;;;;;;;5027021;28;20073;-69
2022/06/05 12:32:50;;;;;;;6.95;3.20;;;;;;;;;;5031287;28;20069;-70
2022/06/05 12:35:23;;;;;;;5.32;2.90;;;;;;;;;;5031564;28;20021;-69
2022/06/05 12:37:54;;;;;;;4.72;3.13;;;;;;;;;;5031916;28;20521;-69
2022/06/05 12:40:23;;;;;;;4.87;3.07;;;;;;;;;;5026601;28;20056;-69
2022/06/05 12:43:01;;;;;;;7.80;3.53;;;;;;;;;;5030862;28;20241;-69
2022/06/05 12:45:30;;;;;;;5.63;3.10;;;;;;;;;;5014972;28;20025;-69
2022/06/05 12:48:03;;;;;;;5.50;3.30;;;;;;;;;;5012942;28;20416;-69
2022/06/05 12:50:31;;;;;;;6.85;3.30;;;;;;;;;;5019999;28;20470;-69
2022/06/05 12:53:01;;;;;;;6.30;3.08;;;;;;;;;;5017037;28;20022;-69
2022/06/05 12:55:35;;;;;;;5.65;3.17;;;;;;;;;;5024183;28;20072;-69
2022/06/05 12:58:10;;;;;;;6.03;2.95;;;;;;;;;;5032342;28;20494;-69
2022/06/05 13:00:44;;;;;;;5.28;3.22;;;;;;;;;;5025295;28;20024;-69
2022/06/05 13:03:25;;;;;;;5.47;3.40;;;;;;;;;;5029932;28;20087;-69
2022/06/05 13:05:54;;;;;;;4.60;3.33;;;;;;;;;;5022459;28;20021;-69
2022/06/05 13:08:38;;;;;;;5.68;3.17;;;;;;;;;;5027937;28;20559;-69
2022/06/05 13:11:06;;;;;;;6.32;3.42;;;;;;;;;;5025328;28;20040;-69
2022/06/05 13:13:41;;;;;;;5.47;3.13;;;;;;;;;;5030362;28;20060;-69
2022/06/05 13:16:11;;;;;;;7.38;3.28;;;;;;;;;;5020162;28;20120;-69
2022/06/05 13:18:45;;;;;;;5.50;3.17;;;;;;;;;;5014385;28;20026;-69
2022/06/05 13:21:16;;;;;;;6.07;3.05;;;;;;;;;;5024833;28;20096;-69
2022/06/05 13:23:42;;;;;;;;;;;;;;;;;;5013161;28;20029;-69
2022/06/05 13:26:22;;;;;;;7.10;3.60;;;;;;;;;;5021402;28;19959;-69
2022/06/05 13:28:47;;;;;;;7.55;3.28;;;;;;;;;;5017493;28;20273;-69
2022/06/05 13:31:12;;;;;;;5.50;3.58;;;;;;;;;;5012791;28;20359;-69
2022/06/05 13:33:42;;;;;;;8.02;3.47;;;;;;;;;;5012021;28;20026;-69
2022/06/05 13:36:30;;;;;;;5.18;3.55;;;;;;;;;;5028435;28;20386;-69
2022/06/05 13:39:01;;;;;;;6.93;3.75;;;;;;;;;;5021942;28;20041;-69
2022/06/05 13:41:32;;;;;;;7.75;3.90;;;;;;;;;;5031065;28;20029;-69
2022/06/05 13:44:20;;;;;;;12.63;4.50;;;;;;;;;;5032077;28;20033;-69
2022/06/05 13:46:48;;;;;;;6.82;4.10;;;;;;;;;;5014218;28;20037;-69
2022/06/05 13:49:34;;;;;;;8.50;4.45;;;;;;;;;;5012837;28;20378;-69
2022/06/05 13:52:08;;;;;;;8.25;4.68;;;;;;;;;;5029796;28;20029;-69
2022/06/05 13:54:45;;;;;;;7.47;4.45;;;;;;;;;;5030305;28;20018;-69
2022/06/05 13:57:14;;;;;;;6.85;4.80;;;;;;;;;;5016327;28;20402;-69
2022/06/05 13:59:44;;;;;;;7.07;5.13;;;;;;;;;;5011357;28;20031;-69
2022/06/05 14:02:28;;;;;;;7.93;4.55;;;;;;;;;;5021572;28;20022;-69
2022/06/05 14:05:02;;;;;;;7.10;5.40;;;;;;;;;;5030874;28;20033;-69
2022/06/05 14:07:30;;;;;;;7.25;5.00;;;;;;;;;;5016893;28;20037;-69
2022/06/05 14:10:31;;;;;;;7.50;5.13;;;;;;;;;;5027696;28;20079;-69
2022/06/05 14:13:07;;;;;;;6.57;5.60;;;;;;;;;;5023235;28;20029;-69
2022/06/05 14:15:44;;;;;;;7.80;6.35;;;;;;;;;;5020836;28;20168;-70
2022/06/05 14:18:40;;;;;;;10.90;7.78;;;;;;;;;;5022960;28;20052;-70
2022/06/05 14:21:06;;;;;;;10.18;8.20;;;;;;;;;;5005991;28;20025;-70
2022/06/05 14:23:32;;;;;;;13.48;8.07;;;;;;;;;;5008277;28;20542;-69
2022/06/05 14:26:01;;;;;;;15.30;8.02;;;;;;;;;;5011114;28;20098;-69
2022/06/05 14:28:34;;;;;;;13.60;8.75;;;;;;;;;;5019248;28;20525;-69
2022/06/05 14:31:01;;;;;;;12.38;9.00;;;;;;;;;;5010211;28;20593;-69
2022/06/05 14:33:29;;;;;;;13.23;9.40;;;;;;;;;;5010872;28;20029;-70
2022/06/05 14:35:55;;;;;;;12.27;8.65;;;;;;;;;;5012751;28;20448;-70
2022/06/05 14:38:29;;;;;;;11.10;9.98;;;;;;;;;;5015796;28;20744;-70
2022/06/05 14:40:59;;;;;;;14.07;10.80;;;;;;;;;;5013017;28;20498;-70
2022/06/05 14:43:34;;;;;;;13.75;9.77;;;;;;;;;;5008328;28;20021;-70
2022/06/05 14:46:15;;;;;;;12.32;10.43;;;;;;;;;;5014082;28;20023;-70
2022/06/05 14:48:42;;;;;;;13.88;10.23;;;;;;;;;;5023898;28;20060;-70
2022/06/05 14:51:34;;;;;;;14.95;10.68;;;;;;;;;;5022800;28;20033;-70
2022/06/05 14:54:11;;;;;;;16.30;10.63;;;;;;;;;;5017052;28;20538;-70
2022/06/05 14:59:58;;;;;;;13.80;10.87;;;;;;;;;;5011103;28;20109;-69
2022/06/05 15:02:43;;;;;;;15.93;11.05;;;;;;;;;;5018063;28;20095;-69
2022/06/05 15:05:11;;;;;;;12.10;10.90;;;;;;;;;;5030787;28;20026;-69
2022/06/05 15:07:36;;;;;;;12.77;10.85;;;;;;;;;;5028505;28;20486;-69
2022/06/05 15:10:05;;;;;;;12.25;10.95;;;;;;;;;;5017177;28;20091;-69